Terminal Aerodrome Forecast
Issued by NWS Grand Forks, ND

Home | Current Version | Previous Version | Graphics & Text | Print | Product List | Glossary On
Versions: 1 2 3 4 5 6 7 8 9 10 11 12 13 14 15 16
964
FTUS43 KFGF 231407 AAA
TAFFAR
TAF AMD
KFAR 231407Z 2314/2412 07014KT P6SM OVC040
      TEMPO 2314/2316 BKN012
     FM240000 10013G20KT P6SM OVC035=

USA.gov is the U.S. government's official web portal to all federal, state and local government web resources and services.